createdAt,value
2019-02-12T00:00:52.210Z,3.35
2019-02-12T00:03:42.065Z,3.26
2019-02-12T00:06:31.538Z,3.39
2019-02-12T00:09:20.903Z,3.37
2019-02-12T00:12:10.518Z,3.54
2019-02-12T00:15:00.394Z,3.62
2019-02-12T00:17:49.665Z,3.64
2019-02-12T00:20:38.640Z,3.67
2019-02-12T00:23:31.878Z,3.63
2019-02-12T00:26:21.504Z,3.58
2019-02-12T00:29:11.006Z,3.44
2019-02-12T00:32:00.095Z,3.52
2019-02-12T00:34:48.921Z,3.23
2019-02-12T00:37:37.845Z,3.44
2019-02-12T00:40:27.095Z,3.42
2019-02-12T00:43:16.060Z,3.52
2019-02-12T00:46:05.654Z,3.48
2019-02-12T00:48:55.116Z,3.59
2019-02-12T00:51:44.587Z,3.50
2019-02-12T00:54:33.631Z,3.75
2019-02-12T00:57:22.712Z,3.65
2019-02-12T01:00:13.683Z,3.65
2019-02-12T01:03:03.108Z,3.59
2019-02-12T01:05:52.010Z,3.65
2019-02-12T01:08:41.276Z,3.52
2019-02-12T01:11:30.589Z,3.47
2019-02-12T01:14:19.830Z,3.46
2019-02-12T01:17:08.978Z,3.49
2019-02-12T01:19:57.925Z,3.50
2019-02-12T01:22:47.170Z,3.51
2019-02-12T01:25:36.392Z,3.53
2019-02-12T01:28:25.960Z,3.61
2019-02-12T01:31:20.190Z,3.56
2019-02-12T01:34:08.866Z,3.55
2019-02-12T01:36:58.144Z,3.32
2019-02-12T01:39:47.823Z,3.40
2019-02-12T01:42:37.326Z,3.45
2019-02-12T01:45:26.936Z,3.51
2019-02-12T01:48:16.223Z,3.50
2019-02-12T01:51:08.055Z,3.36
2019-02-12T01:53:56.902Z,3.47
2019-02-12T01:56:51.430Z,3.41
2019-02-12T01:59:40.747Z,3.33
2019-02-12T02:02:30.414Z,3.37
2019-02-12T02:05:19.958Z,3.36
2019-02-12T02:08:09.369Z,3.33
2019-02-12T02:10:58.742Z,3.25
2019-02-12T02:13:47.771Z,3.26
2019-02-12T02:16:37.016Z,3.24
2019-02-12T02:19:26.710Z,3.20
2019-02-12T02:22:15.917Z,3.14
2019-02-12T02:25:05.842Z,3.07
2019-02-12T02:27:55.483Z,2.95
2019-02-12T02:30:44.896Z,2.96
2019-02-12T02:33:34.206Z,3.03
2019-02-12T02:36:23.808Z,2.90
2019-02-12T02:39:13.027Z,2.82
2019-02-12T02:42:02.356Z,2.81
2019-02-12T02:44:51.767Z,2.89
2019-02-12T02:47:41.659Z,2.89
2019-02-12T02:50:31.082Z,2.95
2019-02-12T02:53:20.595Z,2.88
2019-02-12T02:56:09.787Z,2.85
2019-02-12T02:58:59.028Z,2.79
2019-02-12T03:01:48.475Z,2.73
2019-02-12T03:04:38.132Z,2.73
2019-02-12T03:07:27.323Z,2.52
2019-02-12T03:10:16.671Z,2.58
2019-02-12T03:13:05.878Z,2.43
2019-02-12T03:15:54.759Z,2.26
2019-02-12T03:18:44.198Z,2.28
2019-02-12T03:21:33.624Z,2.20
2019-02-12T03:24:23.170Z,2.22
2019-02-12T03:27:12.726Z,2.17
2019-02-12T03:30:01.451Z,1.91
2019-02-12T03:32:50.772Z,1.88
2019-02-12T03:35:40.187Z,2.01
2019-02-12T03:38:29.965Z,1.97
2019-02-12T03:41:19.059Z,1.90
2019-02-12T03:44:08.220Z,1.87
2019-02-12T03:46:57.463Z,1.77
2019-02-12T03:49:46.755Z,1.84
2019-02-12T03:52:36.142Z,1.76
2019-02-12T03:55:25.543Z,1.60
2019-02-12T03:58:14.584Z,1.58
2019-02-12T04:01:04.048Z,1.45
2019-02-12T04:03:53.632Z,1.46
2019-02-12T04:06:43.257Z,1.44
2019-02-12T04:09:32.511Z,1.44
2019-02-12T04:12:21.914Z,1.42
2019-02-12T04:15:11.422Z,1.36
2019-02-12T04:18:01.229Z,1.38
2019-02-12T04:20:50.658Z,1.34
2019-02-12T04:23:39.490Z,1.40
2019-02-12T04:26:28.810Z,1.42
2019-02-12T04:29:18.294Z,1.48
2019-02-12T04:32:07.639Z,1.47
2019-02-12T04:34:56.722Z,1.51
2019-02-12T04:37:45.948Z,1.52
2019-02-12T04:40:35.488Z,1.57
2019-02-12T04:43:24.499Z,1.62
2019-02-12T04:46:13.973Z,1.77
2019-02-12T04:49:03.349Z,2.06
2019-02-12T04:51:52.841Z,1.95
2019-02-12T04:54:42.100Z,2.01
2019-02-12T04:57:31.717Z,1.87
2019-02-12T05:00:20.937Z,1.76
2019-02-12T05:03:10.041Z,1.79
2019-02-12T05:05:59.442Z,1.84
2019-02-12T05:09:31.316Z,1.71
2019-02-12T05:12:22.003Z,1.74
2019-02-12T05:15:11.572Z,1.63
2019-02-12T05:18:00.798Z,1.65
2019-02-12T05:20:50.269Z,1.63
2019-02-12T05:23:39.828Z,1.62
2019-02-12T05:26:28.903Z,1.54
2019-02-12T05:29:18.500Z,1.55
2019-02-12T05:32:07.091Z,1.57
2019-02-12T05:34:56.367Z,1.57
2019-02-12T05:37:48.785Z,1.63
2019-02-12T05:40:38.645Z,1.67
2019-02-12T05:43:27.964Z,1.68
2019-02-12T05:46:17.310Z,1.70
2019-02-12T05:49:06.705Z,1.67
2019-02-12T05:51:56.273Z,1.60
2019-02-12T05:54:45.390Z,1.68
2019-02-12T05:57:34.818Z,1.89
2019-02-12T06:00:26.647Z,2.08
2019-02-12T06:03:16.279Z,2.27
2019-02-12T06:06:05.539Z,2.02
2019-02-12T06:08:54.823Z,1.86
2019-02-12T06:11:43.931Z,1.89
2019-02-12T06:14:33.193Z,1.78
2019-02-12T06:17:22.387Z,1.81
2019-02-12T06:20:13.079Z,1.83
2019-02-12T06:23:04.072Z,1.86
2019-02-12T06:25:52.623Z,1.90
2019-02-12T06:28:41.947Z,1.87
2019-02-12T06:31:31.211Z,1.84
2019-02-12T06:34:20.557Z,2.17
2019-02-12T06:37:10.168Z,2.43
2019-02-12T06:39:59.596Z,2.60
2019-02-12T06:42:48.880Z,2.77
2019-02-12T06:45:38.065Z,3.11
2019-02-12T06:48:27.366Z,2.89
2019-02-12T06:51:16.551Z,2.56
2019-02-12T06:54:05.913Z,2.58
2019-02-12T06:56:55.617Z,2.73
2019-02-12T06:59:44.824Z,2.62
2019-02-12T07:03:10.951Z,2.65
2019-02-12T07:06:16.105Z,2.72
2019-02-12T07:09:36.103Z,2.64
2019-02-12T07:13:03.361Z,2.65
2019-02-12T07:16:14.497Z,2.63
2019-02-12T07:19:42.964Z,2.60
2019-02-12T07:22:59.911Z,2.71
2019-02-12T07:26:09.079Z,2.81
2019-02-12T07:29:23.635Z,2.71
2019-02-12T07:33:13.163Z,2.81
2019-02-12T07:36:26.958Z,2.85
2019-02-12T07:40:15.312Z,3.06
2019-02-12T07:43:55.532Z,2.98
2019-02-12T07:47:24.797Z,3.03
2019-02-12T07:50:58.177Z,3.11
2019-02-12T07:54:13.709Z,3.10
2019-02-12T07:57:27.831Z,3.20
2019-02-12T08:00:42.217Z,3.16
2019-02-12T08:04:05.018Z,3.30
2019-02-12T08:07:34.190Z,3.34
2019-02-12T08:11:06.031Z,3.40
2019-02-12T08:14:26.453Z,3.46
2019-02-12T08:18:08.039Z,3.63
2019-02-12T08:21:20.760Z,3.78
2019-02-12T08:24:57.243Z,3.70
2019-02-12T08:28:39.753Z,3.75
2019-02-12T08:31:38.546Z,3.73
2019-02-12T08:34:57.373Z,3.52
2019-02-12T08:38:29.120Z,3.49
2019-02-12T08:41:59.201Z,3.55
2019-02-12T08:45:30.830Z,3.50
2019-02-12T08:49:07.245Z,3.58
2019-02-12T08:56:17.022Z,3.44
2019-02-12T08:59:44.400Z,3.48
2019-02-12T09:03:24.960Z,3.56
2019-02-12T09:07:04.303Z,3.66
2019-02-12T09:10:40.984Z,3.67
2019-02-12T09:14:07.685Z,3.50
2019-02-12T09:17:41.265Z,3.75
2019-02-12T09:21:01.157Z,3.89
2019-02-12T09:24:13.264Z,3.76
2019-02-12T09:27:43.057Z,3.63
2019-02-12T09:31:12.367Z,3.72
2019-02-12T09:34:27.306Z,3.94
2019-02-12T09:37:52.744Z,3.80
2019-02-12T09:40:57.129Z,3.90
2019-02-12T09:44:36.529Z,4.02
2019-02-12T09:48:02.926Z,4.21
2019-02-12T09:51:28.597Z,4.28
2019-02-12T09:54:54.131Z,4.15
2019-02-12T09:58:12.575Z,4.00
2019-02-12T10:01:28.062Z,4.04
2019-02-12T10:04:46.723Z,4.09
2019-02-12T10:08:02.762Z,4.34
2019-02-12T10:11:35.406Z,4.22
2019-02-12T10:14:39.978Z,4.25
2019-02-12T10:18:12.831Z,4.37
2019-02-12T10:21:37.110Z,4.23
2019-02-12T10:25:07.060Z,4.21
2019-02-12T10:28:16.543Z,4.49
2019-02-12T10:31:41.053Z,4.47
2019-02-12T10:34:30.429Z,4.33
2019-02-12T10:37:19.669Z,4.48
2019-02-12T10:40:08.639Z,4.30
2019-02-12T10:42:57.854Z,4.55
2019-02-12T10:45:46.731Z,4.41
2019-02-12T10:48:37.242Z,4.43
2019-02-12T10:51:26.025Z,4.26
2019-02-12T10:54:27.718Z,4.39
2019-02-12T10:57:10.575Z,4.63
2019-02-12T10:59:59.388Z,4.23
2019-02-12T11:02:48.768Z,4.39
2019-02-12T11:05:38.160Z,4.40
2019-02-12T11:08:27.307Z,4.55
2019-02-12T11:11:16.249Z,4.59
2019-02-12T11:14:05.631Z,4.43
2019-02-12T11:16:54.692Z,4.27
2019-02-12T11:19:43.497Z,4.36
2019-02-12T11:22:33.195Z,4.10
2019-02-12T11:25:22.619Z,4.14
2019-02-12T11:28:11.796Z,4.08
2019-02-12T11:31:01.010Z,3.96
2019-02-12T11:33:49.999Z,3.90
2019-02-12T11:36:39.123Z,3.90
2019-02-12T11:39:28.521Z,3.77
2019-02-12T11:42:17.934Z,3.86
2019-02-12T11:45:08.673Z,4.00
2019-02-12T11:47:57.984Z,4.11
2019-02-12T11:50:48.293Z,3.87
2019-02-12T11:53:37.905Z,4.07
2019-02-12T11:56:27.163Z,4.23
2019-02-12T11:59:16.485Z,4.40
2019-02-12T12:02:05.846Z,4.24
2019-02-12T12:04:54.775Z,4.24
2019-02-12T12:07:44.703Z,4.25
2019-02-12T12:10:33.846Z,4.22
2019-02-12T12:13:23.169Z,4.13
2019-02-12T12:16:12.518Z,4.39
2019-02-12T12:19:01.900Z,4.23
2019-02-12T12:21:51.785Z,4.19
2019-02-12T12:24:40.836Z,4.36
2019-02-12T12:27:30.295Z,4.19
2019-02-12T12:30:19.738Z,4.01
2019-02-12T12:33:08.536Z,4.11
2019-02-12T12:35:58.055Z,4.26
2019-02-12T12:38:47.350Z,4.68
2019-02-12T12:41:36.670Z,4.47
2019-02-12T12:44:25.706Z,4.22
2019-02-12T12:47:15.309Z,4.24
2019-02-12T12:50:05.555Z,4.25
2019-02-12T12:52:55.745Z,4.19
2019-02-12T12:55:45.361Z,4.27
2019-02-12T12:58:34.703Z,4.29
2019-02-12T13:01:24.298Z,4.23
2019-02-12T13:03:57.547Z,4.17
2019-02-12T13:06:28.559Z,4.18
2019-02-12T13:08:59.850Z,4.17
2019-02-12T13:11:30.982Z,4.44
2019-02-12T13:14:01.998Z,4.22
2019-02-12T13:16:33.178Z,4.10
2019-02-12T13:19:04.182Z,4.07
2019-02-12T13:21:35.182Z,4.26
2019-02-12T13:24:06.348Z,4.46
2019-02-12T13:26:37.359Z,4.73
2019-02-12T13:29:08.354Z,4.62
2019-02-12T13:31:39.416Z,4.92
2019-02-12T13:34:10.420Z,4.90
2019-02-12T13:36:41.873Z,5.26
2019-02-12T13:39:13.303Z,5.63
2019-02-12T13:41:44.386Z,5.57
2019-02-12T13:44:15.632Z,5.59
2019-02-12T13:46:46.821Z,5.03
2019-02-12T13:49:17.952Z,4.85
2019-02-12T13:51:48.957Z,4.24
2019-02-12T13:54:20.918Z,4.12
2019-02-12T13:56:52.006Z,3.97
2019-02-12T13:59:23.386Z,4.62
2019-02-12T14:01:54.687Z,5.23
2019-02-12T14:04:25.836Z,4.49
2019-02-12T14:06:56.996Z,4.95
2019-02-12T14:09:28.474Z,4.98
2019-02-12T14:11:59.642Z,5.12
2019-02-12T14:14:31.184Z,5.54
2019-02-12T14:17:03.642Z,5.15
2019-02-12T14:19:34.760Z,4.26
2019-02-12T14:22:05.995Z,3.33
2019-02-12T14:24:37.145Z,2.85
2019-02-12T14:27:08.239Z,2.70
2019-02-12T14:29:39.595Z,2.47
2019-02-12T14:32:10.616Z,2.30
2019-02-12T14:34:42.088Z,2.07
2019-02-12T14:37:13.176Z,1.94
2019-02-12T14:39:44.899Z,1.96
2019-02-12T14:42:16.100Z,1.87
2019-02-12T14:44:47.652Z,1.76
2019-02-12T14:47:18.859Z,1.68
2019-02-12T14:49:49.975Z,1.67
2019-02-12T14:52:29.081Z,1.54
2019-02-12T14:55:07.789Z,1.61
2019-02-12T14:57:38.924Z,1.59
2019-02-12T15:00:12.746Z,1.43
2019-02-12T15:02:43.847Z,1.46
2019-02-12T15:05:33.051Z,1.35
2019-02-12T15:08:22.452Z,1.21
2019-02-12T15:11:12.254Z,1.15
2019-02-12T15:14:01.809Z,1.11
2019-02-12T15:16:51.654Z,1.14
2019-02-12T15:19:40.517Z,1.14
2019-02-12T15:22:30.270Z,1.03
2019-02-12T15:25:19.742Z,1.01
2019-02-12T15:28:08.659Z,0.97
2019-02-12T15:30:58.569Z,0.95
2019-02-12T15:33:48.518Z,0.92
2019-02-12T15:36:37.606Z,0.81
2019-02-12T15:39:26.986Z,0.75
2019-02-12T15:42:16.295Z,0.75
2019-02-12T15:45:06.426Z,0.79
2019-02-12T15:47:56.118Z,0.80
2019-02-12T15:50:48.363Z,0.72
2019-02-12T15:53:37.587Z,0.68
2019-02-12T15:56:27.852Z,0.62
2019-02-12T15:59:16.973Z,0.54
2019-02-12T16:02:06.025Z,0.55
2019-02-12T16:04:55.411Z,0.43
2019-02-12T16:07:47.484Z,0.40
2019-02-12T16:10:37.513Z,0.37
2019-02-12T16:13:26.181Z,0.31
2019-02-12T16:16:15.895Z,0.24
2019-02-12T16:19:09.571Z,0.30
2019-02-12T16:21:59.303Z,0.27
2019-02-12T16:24:49.045Z,0.22
2019-02-12T16:27:38.422Z,0.15
2019-02-12T16:30:27.971Z,0.12
2019-02-12T16:33:17.130Z,0.11
2019-02-12T16:36:06.715Z,0.17
2019-02-12T16:38:56.075Z,0.12
2019-02-12T16:41:46.021Z,0.07
2019-02-12T16:44:35.750Z,-0.01
2019-02-12T16:47:25.555Z,0.02
2019-02-12T16:50:14.874Z,0.01
2019-02-12T16:53:04.402Z,0.03
2019-02-12T16:55:54.231Z,-0.04
2019-02-12T16:58:44.858Z,-0.07
2019-02-12T17:01:34.190Z,-0.11
2019-02-12T17:04:23.639Z,-0.14
2019-02-12T17:07:13.114Z,-0.11
2019-02-12T17:10:02.809Z,-0.16
2019-02-12T17:12:52.314Z,-0.23
2019-02-12T17:15:41.825Z,-0.22
2019-02-12T17:18:31.615Z,-0.23
2019-02-12T17:21:21.225Z,-0.25
2019-02-12T17:24:10.622Z,-0.26
2019-02-12T17:26:59.685Z,-0.26
2019-02-12T17:29:48.856Z,-0.30
2019-02-12T17:32:38.426Z,-0.36
2019-02-12T17:35:27.705Z,-0.40
2019-02-12T17:38:16.769Z,-0.33
2019-02-12T17:41:06.230Z,-0.38
2019-02-12T17:43:55.834Z,-0.45
2019-02-12T17:46:45.221Z,-0.42
2019-02-12T17:49:35.085Z,-0.45
2019-02-12T17:52:24.022Z,-0.47
2019-02-12T17:55:13.626Z,-0.51
2019-02-12T17:58:02.992Z,-0.46
2019-02-12T18:00:53.289Z,-0.34
2019-02-12T18:03:42.698Z,-0.46
2019-02-12T18:06:32.392Z,-0.49
2019-02-12T18:09:21.811Z,-0.53
2019-02-12T18:12:11.453Z,-0.47
2019-02-12T18:15:01.060Z,-0.48
2019-02-12T18:17:50.434Z,-0.40
2019-02-12T18:20:39.586Z,-0.62
2019-02-12T18:23:28.986Z,-0.69
2019-02-12T18:26:18.279Z,-0.79
2019-02-12T18:29:08.024Z,-0.71
2019-02-12T18:31:56.864Z,-0.83
2019-02-12T18:34:46.662Z,-0.79
2019-02-12T18:37:36.138Z,-0.80
2019-02-12T18:40:25.785Z,-0.88
2019-02-12T18:43:15.148Z,-0.86
2019-02-12T18:46:05.106Z,-0.89
2019-02-12T18:48:54.277Z,-0.86
2019-02-12T18:51:44.030Z,-0.86
2019-02-12T18:54:33.676Z,-0.89
2019-02-12T18:57:23.751Z,-0.87
2019-02-12T19:00:15.633Z,-0.97
2019-02-12T19:03:05.518Z,-0.94
2019-02-12T19:05:55.168Z,-1.07
2019-02-12T19:08:46.125Z,-1.00
2019-02-12T19:11:36.101Z,-1.02
2019-02-12T19:14:29.839Z,-1.01
2019-02-12T19:17:19.755Z,-1.04
2019-02-12T19:20:10.675Z,-1.02
2019-02-12T19:23:01.138Z,-1.16
2019-02-12T19:25:51.042Z,-1.03
2019-02-12T19:28:40.564Z,-1.05
2019-02-12T19:31:30.481Z,-1.00
2019-02-12T19:34:20.248Z,-1.05
2019-02-12T19:37:09.780Z,-1.05
2019-02-12T19:39:59.467Z,-1.13
2019-02-12T19:42:48.774Z,-1.18
2019-02-12T19:45:38.244Z,-1.15
2019-02-12T19:48:29.143Z,-1.15
2019-02-12T19:51:18.462Z,-1.18
2019-02-12T19:54:08.096Z,-1.15
2019-02-12T19:56:58.500Z,-1.15
2019-02-12T19:59:48.982Z,-1.21
2019-02-12T20:02:38.293Z,-1.07
2019-02-12T20:05:30.132Z,-1.20
2019-02-12T20:08:19.442Z,-1.32
2019-02-12T20:11:09.171Z,-1.41
2019-02-12T20:13:58.922Z,-1.43
2019-02-12T20:16:48.570Z,-1.31
2019-02-12T20:19:37.579Z,-1.46
2019-02-12T20:22:27.191Z,-1.42
2019-02-12T20:25:36.975Z,-1.49
2019-02-12T20:28:26.719Z,-1.44
2019-02-12T20:31:16.044Z,-1.51
2019-02-12T20:34:05.634Z,-1.42
2019-02-12T20:36:54.714Z,-1.45
2019-02-12T20:39:44.293Z,-1.44
2019-02-12T20:42:33.869Z,-1.48
2019-02-12T20:45:23.698Z,-1.48
2019-02-12T20:48:12.892Z,-1.58
2019-02-12T20:51:04.841Z,-1.52
2019-02-12T20:53:54.395Z,-1.56
2019-02-12T20:56:43.809Z,-1.68
2019-02-12T20:59:33.761Z,-1.62
2019-02-12T21:02:23.512Z,-1.67
2019-02-12T21:05:14.136Z,-1.56
2019-02-12T21:08:03.513Z,-1.61
2019-02-12T21:10:52.435Z,-1.67
2019-02-12T21:13:42.256Z,-1.67
2019-02-12T21:16:31.739Z,-1.72
2019-02-12T21:19:21.933Z,-1.72
2019-02-12T21:22:10.887Z,-1.66
2019-02-12T21:25:00.353Z,-1.67
2019-02-12T21:27:50.115Z,-1.61
2019-02-12T21:30:39.474Z,-1.60
2019-02-12T21:33:28.716Z,-1.75
2019-02-12T21:36:23.726Z,-1.75
2019-02-12T21:39:13.695Z,-1.72
2019-02-12T21:42:03.138Z,-1.67
2019-02-12T21:44:52.024Z,-1.66
2019-02-12T21:47:41.726Z,-1.65
2019-02-12T21:50:33.404Z,-1.77
2019-02-12T21:53:22.700Z,-1.72
2019-02-12T21:56:11.918Z,-1.68
2019-02-12T21:59:01.204Z,-1.70
2019-02-12T22:01:50.681Z,-1.69
2019-02-12T22:04:40.232Z,-1.74
2019-02-12T22:07:29.536Z,-1.73
2019-02-12T22:10:19.091Z,-1.60
2019-02-12T22:13:08.349Z,-1.62
2019-02-12T22:15:57.742Z,-1.60
2019-02-12T22:18:47.039Z,-1.75
2019-02-12T22:21:36.332Z,-1.75
2019-02-12T22:24:25.601Z,-1.76
2019-02-12T22:27:15.324Z,-1.71
2019-02-12T22:30:04.406Z,-1.69
2019-02-12T22:32:53.494Z,-1.70
2019-02-12T22:35:43.105Z,-1.69
2019-02-12T22:38:32.505Z,-1.71
2019-02-12T22:41:21.834Z,-1.78
2019-02-12T22:44:11.940Z,-1.74
2019-02-12T22:47:04.640Z,-1.75
2019-02-12T22:49:53.418Z,-1.77
2019-02-12T22:52:42.717Z,-1.75
2019-02-12T22:55:35.343Z,-1.81
2019-02-12T22:58:28.064Z,-1.75
2019-02-12T23:01:19.494Z,-1.82
2019-02-12T23:04:09.280Z,-1.94
2019-02-12T23:06:58.766Z,-2.00
2019-02-12T23:09:58.247Z,-2.03
2019-02-12T23:12:47.745Z,-1.90
2019-02-12T23:15:36.791Z,-1.81
2019-02-12T23:18:25.883Z,-1.79
2019-02-12T23:21:15.357Z,-1.77
2019-02-12T23:24:05.244Z,-1.72
2019-02-12T23:26:54.672Z,-1.77
2019-02-12T23:29:44.438Z,-1.69
2019-02-12T23:32:33.853Z,-1.79
2019-02-12T23:35:23.082Z,-1.81
2019-02-12T23:38:12.543Z,-1.86
2019-02-12T23:41:06.158Z,-1.93
2019-02-12T23:43:55.666Z,-1.88
2019-02-12T23:46:46.839Z,-1.96
2019-02-12T23:49:36.444Z,-1.95
2019-02-12T23:52:26.260Z,-2.11
2019-02-12T23:55:15.499Z,-2.04
2019-02-12T23:58:06.233Z,-2.07
